sensor_id;sensor_type;location;lat;lon;timestamp;P1;durP1;ratioP1;P2;durP2;ratioP2
77350;SDS011;66420;50.246;14.320;2023-06-14T00:01:13;5.88;;;3.40;;
77350;SDS011;66420;50.246;14.320;2023-06-14T00:03:58;6.35;;;3.80;;
77350;SDS011;66420;50.246;14.320;2023-06-14T00:06:44;9.52;;;3.95;;
77350;SDS011;66420;50.246;14.320;2023-06-14T00:09:33;7.30;;;5.00;;
77350;SDS011;66420;50.246;14.320;2023-06-14T00:12:17;6.00;;;3.80;;
77350;SDS011;66420;50.246;14.320;2023-06-14T00:15:02;7.57;;;3.55;;
77350;SDS011;66420;50.246;14.320;2023-06-14T00:17:47;6.13;;;4.22;;
77350;SDS011;66420;50.246;14.320;2023-06-14T00:20:32;6.28;;;4.32;;
77350;SDS011;66420;50.246;14.320;2023-06-14T00:23:18;6.80;;;3.83;;
77350;SDS011;66420;50.246;14.320;2023-06-14T00:26:02;5.93;;;3.38;;
77350;SDS011;66420;50.246;14.320;2023-06-14T00:28:47;6.55;;;3.80;;
77350;SDS011;66420;50.246;14.320;2023-06-14T00:31:31;6.57;;;3.70;;
77350;SDS011;66420;50.246;14.320;2023-06-14T00:34:16;6.38;;;3.83;;
77350;SDS011;66420;50.246;14.320;2023-06-14T00:37:01;8.15;;;3.88;;
77350;SDS011;66420;50.246;14.320;2023-06-14T00:39:45;7.13;;;4.00;;
77350;SDS011;66420;50.246;14.320;2023-06-14T00:42:30;6.43;;;3.72;;
77350;SDS011;66420;50.246;14.320;2023-06-14T00:45:15;7.43;;;3.58;;
77350;SDS011;66420;50.246;14.320;2023-06-14T00:48:00;5.32;;;3.25;;
77350;SDS011;66420;50.246;14.320;2023-06-14T00:50:45;6.38;;;3.35;;
77350;SDS011;66420;50.246;14.320;2023-06-14T00:53:30;6.05;;;3.45;;
77350;SDS011;66420;50.246;14.320;2023-06-14T00:56:18;5.70;;;3.65;;
77350;SDS011;66420;50.246;14.320;2023-06-14T00:59:05;6.55;;;3.80;;
77350;SDS011;66420;50.246;14.320;2023-06-14T01:01:50;6.97;;;3.35;;
77350;SDS011;66420;50.246;14.320;2023-06-14T01:04:35;5.35;;;3.00;;
77350;SDS011;66420;50.246;14.320;2023-06-14T01:10:26;6.68;;;4.38;;
77350;SDS011;66420;50.246;14.320;2023-06-14T01:13:21;6.80;;;4.05;;
77350;SDS011;66420;50.246;14.320;2023-06-14T01:16:11;6.47;;;3.63;;
77350;SDS011;66420;50.246;14.320;2023-06-14T01:18:56;6.40;;;4.68;;
77350;SDS011;66420;50.246;14.320;2023-06-14T01:21:42;6.80;;;4.60;;
77350;SDS011;66420;50.246;14.320;2023-06-14T01:24:26;7.38;;;4.45;;
77350;SDS011;66420;50.246;14.320;2023-06-14T01:27:16;7.93;;;4.53;;
77350;SDS011;66420;50.246;14.320;2023-06-14T01:30:01;8.73;;;4.22;;
77350;SDS011;66420;50.246;14.320;2023-06-14T01:32:47;7.25;;;4.68;;
77350;SDS011;66420;50.246;14.320;2023-06-14T01:35:34;9.75;;;4.70;;
77350;SDS011;66420;50.246;14.320;2023-06-14T01:38:20;10.48;;;4.60;;
77350;SDS011;66420;50.246;14.320;2023-06-14T01:41:07;6.88;;;4.85;;
77350;SDS011;66420;50.246;14.320;2023-06-14T01:43:52;6.68;;;4.47;;
77350;SDS011;66420;50.246;14.320;2023-06-14T01:46:40;6.70;;;4.57;;
77350;SDS011;66420;50.246;14.320;2023-06-14T01:49:26;6.65;;;4.60;;
77350;SDS011;66420;50.246;14.320;2023-06-14T01:52:11;10.93;;;4.85;;
77350;SDS011;66420;50.246;14.320;2023-06-14T01:54:56;6.55;;;3.90;;
77350;SDS011;66420;50.246;14.320;2023-06-14T01:57:42;7.80;;;4.50;;
77350;SDS011;66420;50.246;14.320;2023-06-14T02:00:26;9.45;;;5.40;;
77350;SDS011;66420;50.246;14.320;2023-06-14T02:03:11;6.50;;;4.43;;
77350;SDS011;66420;50.246;14.320;2023-06-14T02:05:57;7.13;;;4.13;;
77350;SDS011;66420;50.246;14.320;2023-06-14T02:08:42;8.65;;;4.38;;
77350;SDS011;66420;50.246;14.320;2023-06-14T02:11:27;10.43;;;5.13;;
77350;SDS011;66420;50.246;14.320;2023-06-14T02:14:11;7.28;;;4.10;;
77350;SDS011;66420;50.246;14.320;2023-06-14T02:16:56;6.18;;;4.05;;
77350;SDS011;66420;50.246;14.320;2023-06-14T02:19:41;6.15;;;4.07;;
77350;SDS011;66420;50.246;14.320;2023-06-14T02:22:26;7.05;;;4.45;;
77350;SDS011;66420;50.246;14.320;2023-06-14T02:25:11;7.57;;;5.03;;
77350;SDS011;66420;50.246;14.320;2023-06-14T02:27:56;7.95;;;4.35;;
77350;SDS011;66420;50.246;14.320;2023-06-14T02:30:41;7.70;;;4.68;;
77350;SDS011;66420;50.246;14.320;2023-06-14T02:33:25;8.00;;;4.63;;
77350;SDS011;66420;50.246;14.320;2023-06-14T02:36:10;7.28;;;4.70;;
77350;SDS011;66420;50.246;14.320;2023-06-14T02:38:55;6.53;;;4.55;;
77350;SDS011;66420;50.246;14.320;2023-06-14T02:41:41;8.15;;;5.05;;
77350;SDS011;66420;50.246;14.320;2023-06-14T02:44:26;9.40;;;5.35;;
77350;SDS011;66420;50.246;14.320;2023-06-14T02:47:11;9.45;;;5.57;;
77350;SDS011;66420;50.246;14.320;2023-06-14T02:49:56;7.07;;;4.70;;
77350;SDS011;66420;50.246;14.320;2023-06-14T02:52:41;7.97;;;4.95;;
77350;SDS011;66420;50.246;14.320;2023-06-14T02:55:28;9.90;;;5.40;;
77350;SDS011;66420;50.246;14.320;2023-06-14T02:58:13;7.57;;;4.68;;
77350;SDS011;66420;50.246;14.320;2023-06-14T03:00:58;8.60;;;5.57;;
77350;SDS011;66420;50.246;14.320;2023-06-14T03:03:47;11.55;;;5.80;;
77350;SDS011;66420;50.246;14.320;2023-06-14T03:06:32;9.77;;;5.43;;
77350;SDS011;66420;50.246;14.320;2023-06-14T03:09:17;10.15;;;5.72;;
77350;SDS011;66420;50.246;14.320;2023-06-14T03:12:03;10.52;;;6.00;;
77350;SDS011;66420;50.246;14.320;2023-06-14T03:14:48;11.70;;;5.65;;
77350;SDS011;66420;50.246;14.320;2023-06-14T03:17:35;12.25;;;6.10;;
77350;SDS011;66420;50.246;14.320;2023-06-14T03:20:23;9.90;;;6.15;;
77350;SDS011;66420;50.246;14.320;2023-06-14T03:23:08;8.68;;;5.63;;
77350;SDS011;66420;50.246;14.320;2023-06-14T03:25:53;8.38;;;4.40;;
77350;SDS011;66420;50.246;14.320;2023-06-14T03:28:37;9.98;;;5.57;;
77350;SDS011;66420;50.246;14.320;2023-06-14T03:31:22;9.10;;;4.90;;
77350;SDS011;66420;50.246;14.320;2023-06-14T03:34:07;7.65;;;5.55;;
77350;SDS011;66420;50.246;14.320;2023-06-14T03:36:53;9.93;;;5.75;;
77350;SDS011;66420;50.246;14.320;2023-06-14T03:39:37;10.23;;;5.82;;
77350;SDS011;66420;50.246;14.320;2023-06-14T03:42:22;8.20;;;5.10;;
77350;SDS011;66420;50.246;14.320;2023-06-14T03:45:07;9.43;;;5.35;;
77350;SDS011;66420;50.246;14.320;2023-06-14T03:47:51;10.27;;;5.13;;
77350;SDS011;66420;50.246;14.320;2023-06-14T03:50:37;9.48;;;5.28;;
77350;SDS011;66420;50.246;14.320;2023-06-14T03:53:22;6.47;;;4.82;;
77350;SDS011;66420;50.246;14.320;2023-06-14T03:56:07;9.05;;;5.10;;
77350;SDS011;66420;50.246;14.320;2023-06-14T03:58:52;9.57;;;5.38;;
77350;SDS011;66420;50.246;14.320;2023-06-14T04:01:37;8.68;;;4.80;;
77350;SDS011;66420;50.246;14.320;2023-06-14T04:04:29;11.45;;;5.65;;
77350;SDS011;66420;50.246;14.320;2023-06-14T04:07:14;7.45;;;5.00;;
77350;SDS011;66420;50.246;14.320;2023-06-14T04:09:59;8.88;;;5.47;;
77350;SDS011;66420;50.246;14.320;2023-06-14T04:12:44;10.05;;;5.60;;
77350;SDS011;66420;50.246;14.320;2023-06-14T04:15:28;10.70;;;5.45;;
77350;SDS011;66420;50.246;14.320;2023-06-14T04:18:13;11.07;;;5.93;;
77350;SDS011;66420;50.246;14.320;2023-06-14T04:20:57;8.70;;;5.55;;
77350;SDS011;66420;50.246;14.320;2023-06-14T04:23:42;8.35;;;4.68;;
77350;SDS011;66420;50.246;14.320;2023-06-14T04:26:28;11.23;;;5.45;;
77350;SDS011;66420;50.246;14.320;2023-06-14T04:29:14;9.25;;;6.03;;
77350;SDS011;66420;50.246;14.320;2023-06-14T04:32:00;9.60;;;5.32;;
77350;SDS011;66420;50.246;14.320;2023-06-14T04:34:45;8.18;;;5.50;;
77350;SDS011;66420;50.246;14.320;2023-06-14T04:37:31;8.07;;;5.07;;
77350;SDS011;66420;50.246;14.320;2023-06-14T04:40:17;9.52;;;5.50;;
77350;SDS011;66420;50.246;14.320;2023-06-14T04:43:02;13.52;;;6.07;;
77350;SDS011;66420;50.246;14.320;2023-06-14T04:48:39;9.57;;;5.40;;
77350;SDS011;66420;50.246;14.320;2023-06-14T04:51:25;9.75;;;5.30;;
77350;SDS011;66420;50.246;14.320;2023-06-14T04:54:13;9.60;;;5.10;;
77350;SDS011;66420;50.246;14.320;2023-06-14T04:56:59;10.13;;;5.60;;
77350;SDS011;66420;50.246;14.320;2023-06-14T04:59:43;8.90;;;5.43;;
77350;SDS011;66420;50.246;14.320;2023-06-14T05:02:28;12.85;;;5.53;;
77350;SDS011;66420;50.246;14.320;2023-06-14T05:05:14;8.35;;;4.88;;
77350;SDS011;66420;50.246;14.320;2023-06-14T05:07:59;7.82;;;5.18;;
77350;SDS011;66420;50.246;14.320;2023-06-14T05:10:44;8.43;;;5.30;;
77350;SDS011;66420;50.246;14.320;2023-06-14T05:13:29;8.82;;;5.05;;
77350;SDS011;66420;50.246;14.320;2023-06-14T05:16:17;10.05;;;5.13;;
77350;SDS011;66420;50.246;14.320;2023-06-14T05:19:03;7.43;;;4.90;;
77350;SDS011;66420;50.246;14.320;2023-06-14T05:21:50;8.98;;;4.72;;
77350;SDS011;66420;50.246;14.320;2023-06-14T05:24:35;8.50;;;6.03;;
77350;SDS011;66420;50.246;14.320;2023-06-14T05:27:20;14.85;;;5.70;;
77350;SDS011;66420;50.246;14.320;2023-06-14T05:30:04;9.85;;;5.03;;
77350;SDS011;66420;50.246;14.320;2023-06-14T05:32:49;11.88;;;5.30;;
77350;SDS011;66420;50.246;14.320;2023-06-14T05:35:34;8.10;;;5.22;;
77350;SDS011;66420;50.246;14.320;2023-06-14T05:38:18;6.95;;;4.53;;
77350;SDS011;66420;50.246;14.320;2023-06-14T05:41:03;8.48;;;5.43;;
77350;SDS011;66420;50.246;14.320;2023-06-14T05:43:47;11.80;;;5.10;;
77350;SDS011;66420;50.246;14.320;2023-06-14T05:46:32;9.57;;;5.07;;
77350;SDS011;66420;50.246;14.320;2023-06-14T05:49:17;10.07;;;4.95;;
77350;SDS011;66420;50.246;14.320;2023-06-14T05:52:02;6.90;;;4.70;;
77350;SDS011;66420;50.246;14.320;2023-06-14T05:54:47;7.88;;;4.03;;
77350;SDS011;66420;50.246;14.320;2023-06-14T05:57:32;7.53;;;4.53;;
77350;SDS011;66420;50.246;14.320;2023-06-14T06:00:17;9.40;;;5.40;;
77350;SDS011;66420;50.246;14.320;2023-06-14T06:03:02;9.85;;;3.90;;
77350;SDS011;66420;50.246;14.320;2023-06-14T06:05:47;7.18;;;3.88;;
77350;SDS011;66420;50.246;14.320;2023-06-14T06:08:31;7.45;;;4.10;;
77350;SDS011;66420;50.246;14.320;2023-06-14T06:11:17;7.00;;;3.70;;
77350;SDS011;66420;50.246;14.320;2023-06-14T06:14:02;6.75;;;4.03;;
77350;SDS011;66420;50.246;14.320;2023-06-14T06:16:47;6.35;;;4.28;;
77350;SDS011;66420;50.246;14.320;2023-06-14T06:19:31;5.75;;;3.58;;
77350;SDS011;66420;50.246;14.320;2023-06-14T06:22:16;8.52;;;4.22;;
77350;SDS011;66420;50.246;14.320;2023-06-14T06:25:01;5.90;;;3.90;;
77350;SDS011;66420;50.246;14.320;2023-06-14T06:27:47;5.35;;;3.72;;
77350;SDS011;66420;50.246;14.320;2023-06-14T06:30:31;5.47;;;3.53;;
77350;SDS011;66420;50.246;14.320;2023-06-14T06:33:16;7.72;;;3.38;;
77350;SDS011;66420;50.246;14.320;2023-06-14T06:36:01;9.10;;;4.07;;
77350;SDS011;66420;50.246;14.320;2023-06-14T06:38:47;7.05;;;3.90;;
77350;SDS011;66420;50.246;14.320;2023-06-14T06:41:32;6.40;;;3.90;;
77350;SDS011;66420;50.246;14.320;2023-06-14T06:44:19;7.63;;;4.47;;
77350;SDS011;66420;50.246;14.320;2023-06-14T06:47:03;7.88;;;4.63;;
77350;SDS011;66420;50.246;14.320;2023-06-14T06:49:48;8.15;;;4.13;;
77350;SDS011;66420;50.246;14.320;2023-06-14T06:52:33;9.52;;;4.82;;
77350;SDS011;66420;50.246;14.320;2023-06-14T06:55:18;6.38;;;4.40;;
77350;SDS011;66420;50.246;14.320;2023-06-14T06:58:02;5.85;;;3.60;;
77350;SDS011;66420;50.246;14.320;2023-06-14T07:00:49;7.95;;;3.75;;
77350;SDS011;66420;50.246;14.320;2023-06-14T07:03:33;8.07;;;3.92;;
77350;SDS011;66420;50.246;14.320;2023-06-14T07:06:20;6.47;;;3.65;;
77350;SDS011;66420;50.246;14.320;2023-06-14T07:09:05;10.85;;;3.90;;
77350;SDS011;66420;50.246;14.320;2023-06-14T07:11:56;9.88;;;3.45;;
77350;SDS011;66420;50.246;14.320;2023-06-14T07:14:40;7.40;;;3.55;;
77350;SDS011;66420;50.246;14.320;2023-06-14T07:17:25;8.07;;;4.28;;
77350;SDS011;66420;50.246;14.320;2023-06-14T07:20:09;5.60;;;3.70;;
77350;SDS011;66420;50.246;14.320;2023-06-14T07:22:57;5.78;;;3.75;;
77350;SDS011;66420;50.246;14.320;2023-06-14T07:25:42;7.30;;;3.47;;
77350;SDS011;66420;50.246;14.320;2023-06-14T07:28:27;7.60;;;3.58;;
77350;SDS011;66420;50.246;14.320;2023-06-14T07:31:11;7.00;;;3.15;;
77350;SDS011;66420;50.246;14.320;2023-06-14T07:33:56;6.60;;;3.72;;
77350;SDS011;66420;50.246;14.320;2023-06-14T07:36:41;5.95;;;3.75;;
77350;SDS011;66420;50.246;14.320;2023-06-14T07:39:28;5.82;;;3.17;;
77350;SDS011;66420;50.246;14.320;2023-06-14T07:42:13;8.02;;;3.75;;
77350;SDS011;66420;50.246;14.320;2023-06-14T07:44:57;7.78;;;4.00;;
77350;SDS011;66420;50.246;14.320;2023-06-14T07:47:42;8.52;;;3.92;;
77350;SDS011;66420;50.246;14.320;2023-06-14T07:50:27;6.85;;;3.70;;
77350;SDS011;66420;50.246;14.320;2023-06-14T07:53:11;6.35;;;4.15;;
77350;SDS011;66420;50.246;14.320;2023-06-14T07:55:56;8.10;;;3.90;;
77350;SDS011;66420;50.246;14.320;2023-06-14T07:58:41;6.25;;;3.90;;
77350;SDS011;66420;50.246;14.320;2023-06-14T08:01:26;8.82;;;4.07;;
77350;SDS011;66420;50.246;14.320;2023-06-14T08:04:12;8.27;;;4.05;;
77350;SDS011;66420;50.246;14.320;2023-06-14T08:06:58;7.25;;;4.03;;
77350;SDS011;66420;50.246;14.320;2023-06-14T08:09:43;6.32;;;4.15;;
77350;SDS011;66420;50.246;14.320;2023-06-14T08:12:27;6.25;;;3.63;;
77350;SDS011;66420;50.246;14.320;2023-06-14T08:15:12;7.15;;;4.32;;
77350;SDS011;66420;50.246;14.320;2023-06-14T08:17:56;6.07;;;4.38;;
77350;SDS011;66420;50.246;14.320;2023-06-14T08:20:42;5.75;;;3.72;;
77350;SDS011;66420;50.246;14.320;2023-06-14T08:23:28;7.10;;;3.53;;
77350;SDS011;66420;50.246;14.320;2023-06-14T08:26:13;5.88;;;3.50;;
77350;SDS011;66420;50.246;14.320;2023-06-14T08:28:57;6.50;;;3.95;;
77350;SDS011;66420;50.246;14.320;2023-06-14T08:31:42;7.25;;;3.67;;
77350;SDS011;66420;50.246;14.320;2023-06-14T08:34:27;6.75;;;3.40;;
77350;SDS011;66420;50.246;14.320;2023-06-14T08:37:11;6.60;;;3.75;;
77350;SDS011;66420;50.246;14.320;2023-06-14T08:39:56;6.50;;;3.60;;
77350;SDS011;66420;50.246;14.320;2023-06-14T08:42:41;6.50;;;3.90;;
77350;SDS011;66420;50.246;14.320;2023-06-14T08:45:26;6.90;;;3.35;;
77350;SDS011;66420;50.246;14.320;2023-06-14T08:48:10;5.45;;;3.60;;
77350;SDS011;66420;50.246;14.320;2023-06-14T08:50:56;8.00;;;3.53;;
77350;SDS011;66420;50.246;14.320;2023-06-14T08:53:46;6.57;;;4.00;;
77350;SDS011;66420;50.246;14.320;2023-06-14T08:56:35;5.72;;;3.10;;
77350;SDS011;66420;50.246;14.320;2023-06-14T08:59:31;6.22;;;3.40;;
77350;SDS011;66420;50.246;14.320;2023-06-14T09:02:23;6.03;;;3.03;;
77350;SDS011;66420;50.246;14.320;2023-06-14T09:05:10;6.90;;;3.35;;
77350;SDS011;66420;50.246;14.320;2023-06-14T09:11:51;7.50;;;2.40;;
77350;SDS011;66420;50.246;14.320;2023-06-14T09:14:36;6.75;;;3.10;;
77350;SDS011;66420;50.246;14.320;2023-06-14T09:17:23;3.88;;;3.10;;
77350;SDS011;66420;50.246;14.320;2023-06-14T09:20:08;6.18;;;2.97;;
77350;SDS011;66420;50.246;14.320;2023-06-14T09:22:55;7.82;;;2.80;;
77350;SDS011;66420;50.246;14.320;2023-06-14T09:25:43;5.35;;;3.20;;
77350;SDS011;66420;50.246;14.320;2023-06-14T09:28:28;8.07;;;3.10;;
77350;SDS011;66420;50.246;14.320;2023-06-14T09:31:13;8.13;;;3.00;;
77350;SDS011;66420;50.246;14.320;2023-06-14T09:34:01;5.28;;;2.88;;
77350;SDS011;66420;50.246;14.320;2023-06-14T09:36:47;6.80;;;2.83;;
77350;SDS011;66420;50.246;14.320;2023-06-14T09:39:33;10.48;;;3.08;;
77350;SDS011;66420;50.246;14.320;2023-06-14T09:42:18;5.60;;;3.05;;
77350;SDS011;66420;50.246;14.320;2023-06-14T09:45:03;5.55;;;3.38;;
77350;SDS011;66420;50.246;14.320;2023-06-14T09:47:49;5.10;;;2.92;;
77350;SDS011;66420;50.246;14.320;2023-06-14T09:50:34;7.10;;;3.28;;
77350;SDS011;66420;50.246;14.320;2023-06-14T09:53:20;4.93;;;3.08;;
77350;SDS011;66420;50.246;14.320;2023-06-14T09:56:09;5.25;;;3.00;;
77350;SDS011;66420;50.246;14.320;2023-06-14T09:58:56;5.93;;;2.78;;
77350;SDS011;66420;50.246;14.320;2023-06-14T10:01:42;4.97;;;3.03;;
77350;SDS011;66420;50.246;14.320;2023-06-14T10:04:29;6.30;;;2.80;;
77350;SDS011;66420;50.246;14.320;2023-06-14T10:07:19;4.18;;;2.60;;
77350;SDS011;66420;50.246;14.320;2023-06-14T10:10:05;5.55;;;2.78;;
77350;SDS011;66420;50.246;14.320;2023-06-14T10:12:51;3.80;;;2.80;;
77350;SDS011;66420;50.246;14.320;2023-06-14T10:15:48;6.80;;;3.30;;
77350;SDS011;66420;50.246;14.320;2023-06-14T10:18:45;4.15;;;2.72;;
77350;SDS011;66420;50.246;14.320;2023-06-14T10:24:52;3.20;;;2.25;;
77350;SDS011;66420;50.246;14.320;2023-06-14T10:27:36;6.47;;;2.95;;
77350;SDS011;66420;50.246;14.320;2023-06-14T10:30:25;4.30;;;2.67;;
77350;SDS011;66420;50.246;14.320;2023-06-14T10:39:16;7.88;;;2.67;;
77350;SDS011;66420;50.246;14.320;2023-06-14T10:42:02;7.45;;;3.15;;
77350;SDS011;66420;50.246;14.320;2023-06-14T10:44:52;4.50;;;2.60;;
77350;SDS011;66420;50.246;14.320;2023-06-14T10:47:43;4.75;;;2.90;;
77350;SDS011;66420;50.246;14.320;2023-06-14T10:50:28;4.35;;;2.90;;
77350;SDS011;66420;50.246;14.320;2023-06-14T10:53:27;4.32;;;2.70;;
77350;SDS011;66420;50.246;14.320;2023-06-14T10:56:28;4.53;;;2.30;;
77350;SDS011;66420;50.246;14.320;2023-06-14T10:59:14;5.00;;;2.40;;
77350;SDS011;66420;50.246;14.320;2023-06-14T11:05:06;3.80;;;2.80;;
77350;SDS011;66420;50.246;14.320;2023-06-14T11:11:08;4.82;;;2.47;;
77350;SDS011;66420;50.246;14.320;2023-06-14T11:13:53;3.95;;;2.60;;
77350;SDS011;66420;50.246;14.320;2023-06-14T11:16:38;4.47;;;2.28;;
77350;SDS011;66420;50.246;14.320;2023-06-14T11:19:22;3.13;;;2.03;;
77350;SDS011;66420;50.246;14.320;2023-06-14T11:22:07;4.68;;;2.22;;
77350;SDS011;66420;50.246;14.320;2023-06-14T11:24:53;4.38;;;2.50;;
77350;SDS011;66420;50.246;14.320;2023-06-14T11:27:37;6.03;;;2.40;;
77350;SDS011;66420;50.246;14.320;2023-06-14T11:30:23;4.15;;;2.33;;
77350;SDS011;66420;50.246;14.320;2023-06-14T11:33:09;4.43;;;2.08;;
77350;SDS011;66420;50.246;14.320;2023-06-14T11:35:55;5.30;;;2.60;;
77350;SDS011;66420;50.246;14.320;2023-06-14T11:38:40;3.78;;;2.50;;
77350;SDS011;66420;50.246;14.320;2023-06-14T11:41:24;5.10;;;2.35;;
77350;SDS011;66420;50.246;14.320;2023-06-14T11:44:09;3.85;;;2.58;;
77350;SDS011;66420;50.246;14.320;2023-06-14T11:46:55;5.55;;;2.58;;
77350;SDS011;66420;50.246;14.320;2023-06-14T11:49:41;9.23;;;2.65;;
77350;SDS011;66420;50.246;14.320;2023-06-14T11:52:26;5.68;;;2.70;;
77350;SDS011;66420;50.246;14.320;2023-06-14T11:55:11;6.20;;;2.60;;
77350;SDS011;66420;50.246;14.320;2023-06-14T11:57:56;3.40;;;2.63;;
77350;SDS011;66420;50.246;14.320;2023-06-14T12:00:40;6.00;;;2.80;;
77350;SDS011;66420;50.246;14.320;2023-06-14T12:03:26;4.38;;;3.13;;
77350;SDS011;66420;50.246;14.320;2023-06-14T12:06:14;4.82;;;2.50;;
77350;SDS011;66420;50.246;14.320;2023-06-14T12:08:59;6.55;;;2.55;;
77350;SDS011;66420;50.246;14.320;2023-06-14T12:11:45;4.95;;;2.58;;
77350;SDS011;66420;50.246;14.320;2023-06-14T12:14:31;5.88;;;2.65;;
77350;SDS011;66420;50.246;14.320;2023-06-14T12:17:16;3.88;;;2.67;;
77350;SDS011;66420;50.246;14.320;2023-06-14T12:20:06;3.17;;;2.50;;
77350;SDS011;66420;50.246;14.320;2023-06-14T12:23:02;3.40;;;2.55;;
77350;SDS011;66420;50.246;14.320;2023-06-14T12:25:48;4.63;;;2.38;;
77350;SDS011;66420;50.246;14.320;2023-06-14T12:28:33;3.58;;;2.30;;
77350;SDS011;66420;50.246;14.320;2023-06-14T12:31:18;7.05;;;2.55;;
77350;SDS011;66420;50.246;14.320;2023-06-14T12:34:03;6.70;;;3.05;;
77350;SDS011;66420;50.246;14.320;2023-06-14T12:36:47;3.47;;;2.53;;
77350;SDS011;66420;50.246;14.320;2023-06-14T12:39:32;5.18;;;2.28;;
77350;SDS011;66420;50.246;14.320;2023-06-14T12:42:18;3.72;;;2.70;;
77350;SDS011;66420;50.246;14.320;2023-06-14T12:45:02;3.85;;;2.85;;
77350;SDS011;66420;50.246;14.320;2023-06-14T12:47:47;4.55;;;2.72;;
77350;SDS011;66420;50.246;14.320;2023-06-14T12:50:31;5.30;;;2.80;;
77350;SDS011;66420;50.246;14.320;2023-06-14T12:53:16;5.68;;;2.80;;
77350;SDS011;66420;50.246;14.320;2023-06-14T12:56:01;3.97;;;2.33;;
77350;SDS011;66420;50.246;14.320;2023-06-14T12:58:46;5.78;;;2.40;;
77350;SDS011;66420;50.246;14.320;2023-06-14T13:01:31;5.22;;;3.00;;
77350;SDS011;66420;50.246;14.320;2023-06-14T13:04:16;6.07;;;2.90;;
77350;SDS011;66420;50.246;14.320;2023-06-14T13:07:00;4.68;;;2.60;;
77350;SDS011;66420;50.246;14.320;2023-06-14T13:09:45;3.63;;;2.35;;
77350;SDS011;66420;50.246;14.320;2023-06-14T13:12:30;4.70;;;2.58;;
77350;SDS011;66420;50.246;14.320;2023-06-14T13:15:14;5.53;;;2.50;;
77350;SDS011;66420;50.246;14.320;2023-06-14T13:17:59;5.10;;;2.63;;
77350;SDS011;66420;50.246;14.320;2023-06-14T13:20:45;5.53;;;2.50;;
77350;SDS011;66420;50.246;14.320;2023-06-14T13:23:31;4.82;;;3.30;;
77350;SDS011;66420;50.246;14.320;2023-06-14T13:26:15;3.55;;;2.80;;
77350;SDS011;66420;50.246;14.320;2023-06-14T13:29:00;5.05;;;2.55;;
77350;SDS011;66420;50.246;14.320;2023-06-14T13:31:45;5.55;;;3.13;;
77350;SDS011;66420;50.246;14.320;2023-06-14T13:34:29;4.68;;;2.55;;
77350;SDS011;66420;50.246;14.320;2023-06-14T13:37:14;6.10;;;2.70;;
77350;SDS011;66420;50.246;14.320;2023-06-14T13:39:59;4.63;;;2.67;;
77350;SDS011;66420;50.246;14.320;2023-06-14T13:42:44;4.68;;;2.40;;
77350;SDS011;66420;50.246;14.320;2023-06-14T13:45:30;8.02;;;2.90;;
77350;SDS011;66420;50.246;14.320;2023-06-14T13:48:15;6.25;;;2.90;;
77350;SDS011;66420;50.246;14.320;2023-06-14T13:51:00;5.63;;;2.60;;
77350;SDS011;66420;50.246;14.320;2023-06-14T13:53:45;8.55;;;2.65;;
77350;SDS011;66420;50.246;14.320;2023-06-14T13:56:32;4.63;;;2.67;;
77350;SDS011;66420;50.246;14.320;2023-06-14T13:59:16;6.32;;;2.42;;
77350;SDS011;66420;50.246;14.320;2023-06-14T14:02:01;5.22;;;2.30;;
77350;SDS011;66420;50.246;14.320;2023-06-14T14:04:46;7.18;;;2.40;;
77350;SDS011;66420;50.246;14.320;2023-06-14T14:07:36;5.82;;;2.70;;
77350;SDS011;66420;50.246;14.320;2023-06-14T14:10:22;22.90;;;12.57;;
77350;SDS011;66420;50.246;14.320;2023-06-14T14:13:09;13.13;;;7.97;;
77350;SDS011;66420;50.246;14.320;2023-06-14T14:15:53;12.82;;;7.28;;
77350;SDS011;66420;50.246;14.320;2023-06-14T14:18:38;11.85;;;5.40;;
77350;SDS011;66420;50.246;14.320;2023-06-14T14:21:23;8.73;;;3.88;;
77350;SDS011;66420;50.246;14.320;2023-06-14T14:24:07;8.57;;;4.32;;
77350;SDS011;66420;50.246;14.320;2023-06-14T14:26:52;22.05;;;9.85;;
77350;SDS011;66420;50.246;14.320;2023-06-14T14:29:38;14.55;;;6.63;;
77350;SDS011;66420;50.246;14.320;2023-06-14T14:32:23;8.65;;;4.55;;
77350;SDS011;66420;50.246;14.320;2023-06-14T14:35:07;5.05;;;3.30;;
77350;SDS011;66420;50.246;14.320;2023-06-14T14:37:52;7.70;;;3.20;;
77350;SDS011;66420;50.246;14.320;2023-06-14T14:40:36;6.13;;;2.80;;
77350;SDS011;66420;50.246;14.320;2023-06-14T14:43:21;10.93;;;3.08;;
77350;SDS011;66420;50.246;14.320;2023-06-14T14:46:06;6.40;;;2.72;;
77350;SDS011;66420;50.246;14.320;2023-06-14T14:48:51;6.60;;;2.88;;
77350;SDS011;66420;50.246;14.320;2023-06-14T14:51:36;4.93;;;2.38;;
77350;SDS011;66420;50.246;14.320;2023-06-14T14:54:22;4.85;;;2.60;;
77350;SDS011;66420;50.246;14.320;2023-06-14T14:57:07;5.13;;;2.80;;
77350;SDS011;66420;50.246;14.320;2023-06-14T14:59:52;5.75;;;2.72;;
77350;SDS011;66420;50.246;14.320;2023-06-14T15:02:37;4.20;;;2.70;;
77350;SDS011;66420;50.246;14.320;2023-06-14T15:05:22;4.72;;;2.88;;
77350;SDS011;66420;50.246;14.320;2023-06-14T15:08:06;7.35;;;3.10;;
77350;SDS011;66420;50.246;14.320;2023-06-14T15:10:55;5.00;;;3.20;;
77350;SDS011;66420;50.246;14.320;2023-06-14T15:13:40;4.65;;;2.60;;
77350;SDS011;66420;50.246;14.320;2023-06-14T15:16:25;3.85;;;2.72;;
77350;SDS011;66420;50.246;14.320;2023-06-14T15:19:09;5.38;;;3.17;;
77350;SDS011;66420;50.246;14.320;2023-06-14T15:21:54;4.03;;;2.88;;
77350;SDS011;66420;50.246;14.320;2023-06-14T15:24:41;3.72;;;2.92;;
77350;SDS011;66420;50.246;14.320;2023-06-14T15:27:26;5.55;;;2.67;;
77350;SDS011;66420;50.246;14.320;2023-06-14T15:30:12;4.55;;;2.97;;
77350;SDS011;66420;50.246;14.320;2023-06-14T15:32:57;4.00;;;2.40;;
77350;SDS011;66420;50.246;14.320;2023-06-14T15:35:42;3.63;;;2.75;;
77350;SDS011;66420;50.246;14.320;2023-06-14T15:38:27;4.03;;;2.60;;
77350;SDS011;66420;50.246;14.320;2023-06-14T15:41:11;5.00;;;2.83;;
77350;SDS011;66420;50.246;14.320;2023-06-14T15:43:56;5.30;;;3.10;;
77350;SDS011;66420;50.246;14.320;2023-06-14T15:46:40;5.57;;;2.90;;
77350;SDS011;66420;50.246;14.320;2023-06-14T15:49:25;5.45;;;2.60;;
77350;SDS011;66420;50.246;14.320;2023-06-14T15:52:10;6.18;;;2.92;;
77350;SDS011;66420;50.246;14.320;2023-06-14T15:54:54;5.63;;;2.85;;
77350;SDS011;66420;50.246;14.320;2023-06-14T15:57:39;6.35;;;2.80;;
77350;SDS011;66420;50.246;14.320;2023-06-14T16:00:23;4.82;;;3.03;;
77350;SDS011;66420;50.246;14.320;2023-06-14T16:03:10;8.43;;;2.58;;
77350;SDS011;66420;50.246;14.320;2023-06-14T16:05:54;4.68;;;2.85;;
77350;SDS011;66420;50.246;14.320;2023-06-14T16:08:39;4.43;;;2.67;;
77350;SDS011;66420;50.246;14.320;2023-06-14T16:11:24;5.10;;;2.75;;
77350;SDS011;66420;50.246;14.320;2023-06-14T16:14:09;6.05;;;2.95;;
77350;SDS011;66420;50.246;14.320;2023-06-14T16:16:53;5.60;;;2.75;;
77350;SDS011;66420;50.246;14.320;2023-06-14T16:19:38;5.10;;;2.83;;
77350;SDS011;66420;50.246;14.320;2023-06-14T16:22:23;4.65;;;2.80;;
77350;SDS011;66420;50.246;14.320;2023-06-14T16:25:08;4.75;;;2.90;;
77350;SDS011;66420;50.246;14.320;2023-06-14T16:27:53;3.72;;;2.80;;
77350;SDS011;66420;50.246;14.320;2023-06-14T16:30:37;3.70;;;2.50;;
77350;SDS011;66420;50.246;14.320;2023-06-14T16:33:22;5.03;;;2.70;;
77350;SDS011;66420;50.246;14.320;2023-06-14T16:36:07;4.20;;;2.90;;
77350;SDS011;66420;50.246;14.320;2023-06-14T16:38:52;4.20;;;3.08;;
77350;SDS011;66420;50.246;14.320;2023-06-14T16:41:36;4.82;;;3.08;;
77350;SDS011;66420;50.246;14.320;2023-06-14T16:44:21;5.05;;;2.90;;
77350;SDS011;66420;50.246;14.320;2023-06-14T16:47:05;6.40;;;2.85;;